Weather History for Peru, IL

Change the Weather History Date:

Friday, November 30, 2012

  Actual Average Record
Temperature  
Mean Temperature 44 °F -  
Max Temperature 54 °F 41 °F 62 °F (1970)
Min Temperature 33 °F 26 °F 3 °F (1976)
Degree Days  
Heating Degree Days 22    
Moisture  
Dew Point 33 °F    
Average Humidity 70    
Maximum Humidity 93    
Minimum Humidity 48    
Precipitation  
Precipitation 0.00 in - - ()
Sea Level Pressure  
Sea Level Pressure 30.07 in    
Wind  
Wind Speed 6 mph (ESE)    
Max Wind Speed 12 mph    
Max Gust Speed -    
Visibility 9 miles    
Events      
Averages and records for this station are not official NWS values.
T = Trace of Precipitation, MM = Missing Value Source: NWS Daily Summary

Daily Weather History Graph

Daily Weather History Graph

Search for Another Location

Airport:

Trip Planner

Search our weather history database for the weather conditions in past years. The results will help you decide how hot, cold, wet, or windy it might be!

Date:

Astronomy

Nov. 30, 2012 Rise Set
Actual Time 7:02 AM CST 4:28 PM CST
Civil Twilight 6:31 AM CST 4:58 PM CST
Nautical Twilight 5:57 AM CST 5:33 PM CST
Astronomical Twilight 5:24 AM CST 6:06 PM CST
Moon 6:23 PM CST (11/30) 8:34 AM CST (11/30)
Length of Visible Light 10h 27m
Length of Day
9h 25m
Waning Gibbous, 96% of the Moon is Illuminated
Nov 30
Waning Gibbous
Dec 6
Last Quarter
Dec 13
New
Dec 19
First Quarter
Dec 28
Full

Hourly Weather History & Observations

Time (CST) Temp. Windchill Dew Point Humidity Pressure Visibility Wind Dir Wind Speed Gust Speed Precip Events Conditions
12:15 AM 39.7 °F 33.7 °F 32.0 °F 74% 30.06 in 10.0 mi South 9.2 mph - N/A   Overcast
12:35 AM 39.7 °F 34.3 °F 32.0 °F 74% 30.05 in 10.0 mi South 8.1 mph - N/A   Overcast
12:55 AM 39.7 °F 32.7 °F 32.0 °F 74% 30.05 in 10.0 mi South 11.5 mph - N/A   Overcast
1:15 AM 41.0 °F 34.3 °F 32.0 °F 70% 30.05 in 10.0 mi South 11.5 mph - N/A   Overcast
1:35 AM 41.0 °F 34.7 °F 32.0 °F 70% 30.05 in 10.0 mi South 10.4 mph - N/A   Overcast
1:55 AM 41.0 °F 34.7 °F 32.2 °F 71% 30.05 in 10.0 mi South 10.4 mph - N/A   Overcast
2:15 AM 41.0 °F 34.7 °F 32.2 °F 71% 30.05 in 10.0 mi South 10.4 mph - N/A   Overcast
2:35 AM 40.1 °F 34.1 °F 32.0 °F 73% 30.05 in 10.0 mi South 9.2 mph - N/A   Mostly Cloudy
2:55 AM 39.6 °F 33.5 °F 32.2 °F 75% 30.03 in 10.0 mi South 9.2 mph - N/A   Scattered Clouds
3:15 AM 40.3 °F 36.3 °F 32.5 °F 74% 30.04 in 10.0 mi South 5.8 mph - N/A   Mostly Cloudy
3:35 AM 40.8 °F 36.9 °F 33.1 °F 74% 30.04 in 10.0 mi South 5.8 mph - N/A   Overcast
3:55 AM 39.7 °F 35.6 °F 32.2 °F 74% 30.03 in 10.0 mi South 5.8 mph - N/A   Mostly Cloudy
4:15 AM 38.7 °F 35.2 °F 32.4 °F 78% 30.03 in 10.0 mi South 4.6 mph - N/A   Scattered Clouds
4:35 AM 37.2 °F 34.7 °F 31.5 °F 80% 30.03 in 10.0 mi SSE 3.5 mph - N/A   Clear
4:55 AM 39.6 °F 36.3 °F 32.9 °F 77% 30.04 in 10.0 mi SSE 4.6 mph - N/A   Clear
5:15 AM 37.6 °F 31.6 °F 31.8 °F 80% 30.03 in 10.0 mi SSE 8.1 mph - N/A   Clear
5:35 AM 36.9 °F 32.2 °F 31.8 °F 82% 30.03 in 10.0 mi SSE 5.8 mph - N/A   Clear
5:55 AM 36.0 °F 33.3 °F 31.5 °F 84% 30.04 in 10.0 mi SE 3.5 mph - N/A   Clear
6:35 AM 37.0 °F 33.3 °F 32.0 °F 82% 30.04 in 10.0 mi SE 4.6 mph - N/A   Clear
6:55 AM 35.1 °F - 31.5 °F 87% 30.04 in 10.0 mi Calm Calm - N/A   Clear
7:15 AM 33.1 °F - 29.8 °F 88% 30.04 in 10.0 mi Calm Calm - N/A   Clear
7:35 AM 34.3 °F - 30.9 °F 87% 30.05 in 10.0 mi Calm Calm - N/A   Clear
7:55 AM 35.6 °F - 31.5 °F 85% 30.07 in 10.0 mi Calm Calm - N/A   Clear
8:15 AM 36.9 °F - 32.2 °F 83% 30.07 in 10.0 mi Calm Calm - N/A   Clear
8:35 AM 39.6 °F - 33.3 °F 78% 30.07 in 10.0 mi Calm Calm - N/A   Clear
8:55 AM 41.2 °F - 33.3 °F 73% 30.07 in 10.0 mi Calm Calm - N/A   Clear
9:15 AM 43.2 °F - 33.4 °F 69% 30.07 in 10.0 mi Calm Calm - N/A   Clear
9:35 AM 44.2 °F - 33.4 °F 66% 30.07 in 10.0 mi Calm Calm - N/A   Clear
9:55 AM 45.9 °F 43.6 °F 32.9 °F 61% 30.08 in 10.0 mi SW 4.6 mph - N/A   Clear
10:15 AM 46.4 °F 43.5 °F 32.9 °F 59% 30.07 in 10.0 mi SSW 5.8 mph - N/A   Clear
10:35 AM 47.3 °F - 33.3 °F 58% 30.07 in 10.0 mi SW 4.6 mph - N/A   Clear
10:55 AM 48.2 °F - 33.4 °F 57% 30.07 in 10.0 mi Calm Calm - N/A   Clear
11:15 AM 49.1 °F - 33.8 °F 56% 30.05 in 10.0 mi Calm Calm - N/A   Clear
11:35 AM 50.4 °F - 34.5 °F 55% 30.05 in 10.0 mi Calm Calm - N/A   Clear
11:55 AM 50.9 °F - 34.3 °F 53% 30.05 in 10.0 mi Calm Calm - N/A   Clear
12:15 PM 51.1 °F - 34.7 °F 54% 30.05 in 10.0 mi Calm Calm - N/A   Clear
12:35 PM 52.2 °F - 34.9 °F 52% 30.05 in 10.0 mi NNW 3.5 mph - N/A   Clear
12:55 PM 52.7 °F - 35.4 °F 52% 30.05 in 10.0 mi Calm Calm - N/A   Clear
1:15 PM 52.9 °F - 35.2 °F 51% 30.05 in 10.0 mi Calm Calm - N/A   Clear
1:35 PM 53.2 °F - 35.4 °F 51% 30.05 in 10.0 mi Calm Calm - N/A   Clear
1:55 PM 53.8 °F - 34.7 °F 48% 30.04 in 10.0 mi Calm Calm - N/A   Clear
2:15 PM 54.3 °F - 35.4 °F 49% 30.04 in 10.0 mi Calm Calm - N/A   Clear
2:35 PM 53.6 °F - 34.7 °F 49% 30.05 in 10.0 mi Calm Calm - N/A   Clear
2:55 PM 53.6 °F - 34.9 °F 49% 30.05 in 10.0 mi Calm Calm - N/A   Clear
3:15 PM 53.6 °F - 34.9 °F 49% 30.06 in 10.0 mi Calm Calm - N/A   Clear
3:35 PM 52.9 °F - 35.2 °F 51% 30.07 in 10.0 mi Calm Calm - N/A   Clear
3:55 PM 50.9 °F - 34.9 °F 54% 30.08 in 10.0 mi NE 3.5 mph - N/A   Clear
4:15 PM 49.1 °F - 33.4 °F 55% 30.09 in 10.0 mi NE 4.6 mph - N/A   Clear
4:35 PM 46.9 °F - 33.1 °F 59% 30.09 in 10.0 mi NNE 6.9 mph - N/A   Clear
4:55 PM 46.4 °F 42.9 °F 33.4 °F 61% 30.10 in 10.0 mi NE 6.9 mph - N/A   Clear
5:15 PM 45.1 °F 40.8 °F 33.1 °F 63% 30.11 in 10.0 mi NE 8.1 mph - N/A   Clear
5:35 PM 44.8 °F 39.4 °F 34.3 °F 67% 30.11 in 10.0 mi NE 10.4 mph - N/A   Clear
5:55 PM 45.0 °F 41.2 °F 34.5 °F 67% 30.11 in 10.0 mi ENE 6.9 mph - N/A   Clear
6:15 PM 45.1 °F 40.3 °F 34.5 °F 66% 30.11 in 10.0 mi ENE 9.2 mph - N/A   Clear
6:35 PM 45.1 °F 41.4 °F 34.3 °F 66% 30.12 in 10.0 mi ENE 6.9 mph - N/A   Clear
6:55 PM 44.6 °F 39.7 °F 34.5 °F 68% 30.12 in 10.0 mi ENE 9.2 mph - N/A   Clear
7:15 PM 43.7 °F 38.6 °F 34.2 °F 69% 30.12 in 10.0 mi ENE 9.2 mph - N/A   Clear
7:35 PM 42.1 °F 36.6 °F 33.8 °F 72% 30.12 in 10.0 mi ENE 9.2 mph - N/A   Clear
7:55 PM 41.0 °F 35.2 °F 33.8 °F 76% 30.12 in 10.0 mi East 9.2 mph - N/A   Clear
8:15 PM 39.7 °F 33.7 °F 33.3 °F 78% 30.12 in 10.0 mi East 9.2 mph - N/A   Clear
8:35 PM 39.6 °F 33.5 °F 33.8 °F 80% 30.11 in 5.0 mi ENE 9.2 mph - N/A   Haze
8:55 PM 39.2 °F 33.6 °F 34.2 °F 82% 30.11 in 4.0 mi East 8.1 mph - N/A   Haze
9:15 PM 38.3 °F 31.9 °F 33.4 °F 83% 30.11 in 4.0 mi ENE 9.2 mph - N/A   Clear
9:35 PM 37.6 °F 31.6 °F 33.4 °F 85% 30.12 in 4.0 mi East 8.1 mph - N/A   Clear
9:55 PM 37.6 °F 32.3 °F 33.8 °F 86% 30.11 in 4.0 mi ENE 6.9 mph - N/A   Clear
10:15 PM 36.9 °F 32.2 °F 33.3 °F 87% 30.11 in 5.0 mi ENE 5.8 mph - N/A   Clear
10:35 PM 36.1 °F 31.4 °F 33.1 °F 89% 30.11 in 4.0 mi East 5.8 mph - N/A   Clear
10:55 PM 35.6 °F 31.7 °F 32.9 °F 90% 30.11 in 3.0 mi ENE 4.6 mph - N/A   Clear
11:15 PM 34.3 °F 28.4 °F 32.0 °F 91% 30.12 in 7.0 mi NE 6.9 mph - N/A   Clear
11:35 PM 33.8 °F 27.7 °F 32.0 °F 93% 30.11 in 5.0 mi ENE 6.9 mph - N/A   Clear
11:55 PM 34.3 °F 27.7 °F 32.4 °F 92% 30.10 in 5.0 mi ENE 8.1 mph - N/A   Clear